Time;durP1;ratioP1;P1;durP2;ratioP2;P2;SDS_P1;SDS_P2;PMS_P1;PMS_P2;Temp;Humidity;BMP_temperature;BMP_pressure;BME280_temperature;BME280_humidity;BME280_pressure;Samples;Min_cycle;Max_cycle;Signal;HPM_P1;HPM_P2
2021/04/19 00:00:08;;;;;;;17.13;11.23;;;9.40;99.90;;;;;;5113738;28;20677;-70
2021/04/19 00:02:34;;;;;;;20.90;11.63;;;9.30;99.90;;;;;;5113912;28;20225;-70
2021/04/19 00:05:01;;;;;;;19.05;11.95;;;9.20;99.90;;;;;;5113671;28;20227;-70
2021/04/19 00:07:27;;;;;;;17.40;11.98;;;9.00;99.90;;;;;;5113746;28;20243;-70
2021/04/19 00:09:53;;;;;;;17.83;11.07;;;8.90;99.90;;;;;;5113823;28;20288;-70
2021/04/19 00:12:20;;;;;;;18.83;11.20;;;9.00;99.90;;;;;;5113621;28;20221;-70
2021/04/19 00:14:47;;;;;;;16.27;11.88;;;9.00;99.90;;;;;;5113837;28;20288;-70
2021/04/19 00:17:13;;;;;;;17.10;11.00;;;9.10;99.90;;;;;;5113429;28;20288;-70
2021/04/19 00:19:40;;;;;;;17.27;11.85;;;9.20;99.90;;;;;;5113694;28;20287;-70
2021/04/19 00:22:06;;;;;;;15.93;11.23;;;9.20;99.90;;;;;;5113490;28;20249;-70
2021/04/19 00:24:32;;;;;;;23.08;12.75;;;9.00;99.90;;;;;;5113700;28;20224;-71
2021/04/19 00:26:59;;;;;;;19.30;11.60;;;8.90;99.90;;;;;;5117420;28;20261;-70
2021/04/19 00:29:26;;;;;;;22.20;12.93;;;8.80;99.90;;;;;;5117764;28;20235;-70
2021/04/19 00:31:52;;;;;;;20.15;11.90;;;8.80;99.90;;;;;;5117684;28;20304;-70
2021/04/19 00:34:19;;;;;;;19.35;11.68;;;8.90;99.90;;;;;;5117542;28;20725;-70
2021/04/19 00:36:45;;;;;;;16.45;10.95;;;8.90;99.90;;;;;;5117198;28;20292;-70
2021/04/19 00:39:11;;;;;;;18.50;11.38;;;9.10;99.90;;;;;;5117514;28;20308;-70
2021/04/19 00:41:38;;;;;;;18.88;11.63;;;9.20;99.90;;;;;;5117537;28;20308;-70
2021/04/19 00:44:05;;;;;;;19.77;11.65;;;9.20;99.90;;;;;;5117442;28;20297;-70
2021/04/19 00:46:32;;;;;;;18.60;12.55;;;9.20;99.90;;;;;;5117235;28;20209;-70
2021/04/19 00:48:59;;;;;;;19.23;12.30;;;9.20;99.90;;;;;;5117400;28;20255;-69
2021/04/19 00:51:25;;;;;;;19.13;12.32;;;9.20;99.90;;;;;;5117081;28;20226;-70
2021/04/19 00:53:53;;;;;;;21.58;12.65;;;9.10;99.90;;;;;;5117013;28;20768;-70
2021/04/19 00:56:20;;;;;;;21.98;12.65;;;8.90;99.90;;;;;;5116801;28;20247;-70
2021/04/19 00:58:47;;;;;;;27.88;15.20;;;8.70;99.90;;;;;;5117250;27;20631;-70
2021/04/19 01:01:14;;;;;;;27.33;16.00;;;8.90;99.90;;;;;;5116983;27;20221;-70
2021/04/19 01:03:42;;;;;;;25.60;15.07;;;8.80;99.90;;;;;;5117079;28;20296;-70
2021/04/19 01:06:09;;;;;;;22.70;13.95;;;8.70;99.90;;;;;;5116816;28;20297;-70
2021/04/19 01:08:37;;;;;;;20.25;13.20;;;8.50;99.90;;;;;;5116998;28;20296;-70
2021/04/19 01:11:04;;;;;;;23.58;14.25;;;8.50;99.90;;;;;;5116825;28;20225;-70
2021/04/19 01:13:30;;;;;;;20.95;11.82;;;8.40;99.90;;;;;;5116700;28;20288;-70
2021/04/19 01:15:56;;;;;;;18.42;13.00;;;8.40;99.90;;;;;;5116698;28;20233;-70
2021/04/19 01:18:23;;;;;;;19.70;12.30;;;8.60;99.90;;;;;;5116830;28;20284;-70
2021/04/19 01:20:51;;;;;;;17.92;12.27;;;8.70;99.90;;;;;;5116663;27;20204;-70
2021/04/19 01:23:19;;;;;;;20.88;11.98;;;8.80;99.90;;;;;;5116757;28;20293;-70
2021/04/19 01:25:46;;;;;;;16.85;12.32;;;8.90;99.90;;;;;;5116521;28;20232;-70
2021/04/19 01:28:13;;;;;;;19.30;12.95;;;8.80;99.90;;;;;;5116463;28;20201;-70
2021/04/19 01:30:41;;;;;;;21.73;12.90;;;8.70;99.90;;;;;;5116472;28;20680;-70
2021/04/19 01:33:08;;;;;;;18.52;13.13;;;8.60;99.90;;;;;;5116290;28;20288;-70
2021/04/19 01:35:35;;;;;;;21.33;13.50;;;8.70;99.90;;;;;;5115977;28;20735;-69
2021/04/19 01:38:03;;;;;;;20.25;13.02;;;8.60;99.90;;;;;;5115786;28;20211;-70
2021/04/19 01:40:29;;;;;;;22.33;12.52;;;8.70;99.90;;;;;;5116404;28;20205;-70
2021/04/19 01:42:56;;;;;;;20.73;13.95;;;8.80;99.90;;;;;;5116044;28;20250;-70
2021/04/19 01:45:23;;;;;;;19.58;13.05;;;8.70;99.90;;;;;;5115963;28;20704;-70
2021/04/19 01:47:50;;;;;;;20.15;12.45;;;8.60;99.90;;;;;;5116171;28;20197;-70
2021/04/19 01:50:19;;;;;;;21.27;13.38;;;8.40;99.90;;;;;;5116228;28;20296;-70
2021/04/19 01:52:45;;;;;;;19.40;12.38;;;8.30;99.90;;;;;;5116148;28;20279;-70
2021/04/19 01:55:16;;;;;;;18.55;12.15;;;8.40;99.90;;;;;;5115874;28;20260;-70
2021/04/19 01:57:47;;;;;;;19.15;11.70;;;8.40;99.90;;;;;;5115951;28;20205;-70
2021/04/19 02:00:14;;;;;;;19.38;12.18;;;8.50;99.90;;;;;;5116054;28;20211;-69
2021/04/19 02:02:49;;;;;;;20.00;12.70;;;8.40;99.90;;;;;;5115863;28;20355;-70
2021/04/19 02:05:24;;;;;;;17.90;12.30;;;8.30;99.90;;;;;;5115874;28;20311;-70
2021/04/19 02:07:55;;;;;;;21.88;13.25;;;8.30;99.90;;;;;;5115727;28;20292;-70
2021/04/19 02:10:28;;;;;;;16.65;11.93;;;8.30;99.90;;;;;;5115733;28;20220;-70
2021/04/19 02:12:58;;;;;;;19.50;12.20;;;8.50;99.90;;;;;;5115761;28;20281;-70
2021/04/19 02:15:32;;;;;;;18.48;12.70;;;8.50;99.90;;;;;;5115318;27;20293;-70
2021/04/19 02:18:07;;;;;;;21.90;12.55;;;8.40;99.90;;;;;;5115534;28;20205;-70
2021/04/19 02:20:42;;;;;;;20.77;13.30;;;8.30;99.90;;;;;;5115513;28;20577;-70
2021/04/19 02:23:16;;;;;;;21.13;13.23;;;8.10;99.90;;;;;;5115667;28;20192;-69
2021/04/19 02:25:43;;;;;;;21.08;13.23;;;8.10;99.90;;;;;;5115053;28;20206;-70
2021/04/19 02:28:15;;;;;;;22.23;13.90;;;8.00;99.90;;;;;;5115192;28;20748;-70
2021/04/19 02:30:46;;;;;;;21.15;14.10;;;8.00;99.90;;;;;;5115292;28;20211;-69
2021/04/19 02:33:15;;;;;;;20.70;12.77;;;8.00;99.90;;;;;;5115493;28;20189;-69
2021/04/19 02:35:45;;;;;;;20.38;14.18;;;7.90;99.90;;;;;;5115012;28;20664;-70
2021/04/19 02:38:16;;;;;;;18.85;12.95;;;7.90;99.90;;;;;;5115213;28;20288;-70
2021/04/19 02:40:44;;;;;;;23.60;13.82;;;7.90;99.90;;;;;;5115200;28;20197;-69
2021/04/19 02:43:11;;;;;;;17.10;12.43;;;8.10;99.90;;;;;;5114953;28;20708;-69
2021/04/19 02:45:38;;;;;;;18.48;12.50;;;8.30;99.90;;;;;;5114728;28;20225;-70
2021/04/19 02:48:06;;;;;;;21.65;12.43;;;8.40;99.90;;;;;;5114578;27;20208;-69
2021/04/19 02:50:33;;;;;;;20.63;12.98;;;8.60;99.90;;;;;;5114519;28;20322;-69
2021/04/19 02:53:01;;;;;;;19.70;13.32;;;8.70;99.90;;;;;;5114979;28;20221;-70
2021/04/19 02:55:30;;;;;;;21.55;12.93;;;8.80;99.90;;;;;;5114582;28;20255;-70
2021/04/19 02:58:01;;;;;;;18.25;12.52;;;8.90;99.90;;;;;;5114875;28;20226;-70
2021/04/19 03:00:32;;;;;;;20.05;13.25;;;8.90;99.90;;;;;;5114905;28;20246;-69
2021/04/19 03:03:01;;;;;;;20.90;13.18;;;8.90;99.90;;;;;;5114740;28;20237;-70
2021/04/19 03:05:29;;;;;;;21.30;13.13;;;9.00;99.90;;;;;;5114251;28;20221;-70
2021/04/19 03:07:59;;;;;;;20.08;12.75;;;9.10;99.90;;;;;;5114464;28;20201;-70
2021/04/19 03:10:28;;;;;;;19.33;13.13;;;9.20;99.90;;;;;;5114582;28;20710;-70
2021/04/19 03:12:58;;;;;;;19.38;13.05;;;9.20;99.90;;;;;;5114596;28;20312;-69
2021/04/19 03:15:29;;;;;;;18.90;12.50;;;9.10;99.90;;;;;;5114165;28;20229;-69
2021/04/19 03:17:58;;;;;;;17.27;12.10;;;9.10;99.90;;;;;;5114522;28;20224;-70
2021/04/19 03:20:28;;;;;;;19.42;13.68;;;9.10;99.90;;;;;;5114304;28;20208;-70
2021/04/19 03:22:55;;;;;;;20.10;13.30;;;9.00;99.90;;;;;;5114482;28;20322;-70
2021/04/19 03:25:24;;;;;;;18.50;12.35;;;8.90;99.90;;;;;;5114149;28;20221;-70
2021/04/19 03:27:55;;;;;;;19.30;12.95;;;8.90;99.90;;;;;;5114285;28;20688;-70
2021/04/19 03:30:23;;;;;;;20.95;14.40;;;8.90;99.90;;;;;;5114370;28;20345;-70
2021/04/19 03:32:52;;;;;;;22.33;13.25;;;8.70;99.90;;;;;;5114272;28;20224;-69
2021/04/19 03:35:23;;;;;;;19.77;13.80;;;8.50;99.90;;;;;;5114116;28;20284;-70
2021/04/19 03:37:51;;;;;;;22.90;14.15;;;8.40;99.90;;;;;;5114352;28;20186;-69
2021/04/19 03:40:22;;;;;;;22.60;14.77;;;8.30;99.90;;;;;;5114136;28;20205;-69
2021/04/19 03:42:54;;;;;;;22.67;13.07;;;8.20;99.90;;;;;;5114993;28;20247;-70
2021/04/19 03:45:24;;;;;;;17.95;12.43;;;8.30;99.90;;;;;;5113640;28;20221;-70
2021/04/19 03:47:53;;;;;;;20.15;13.63;;;8.40;99.90;;;;;;5114469;28;20212;-70
2021/04/19 03:50:22;;;;;;;24.33;14.10;;;8.40;99.90;;;;;;5113962;28;20677;-70
2021/04/19 03:52:51;;;;;;;24.38;14.65;;;8.20;99.90;;;;;;5113916;28;20221;-69
2021/04/19 03:55:18;;;;;;;24.45;14.23;;;8.10;99.90;;;;;;5113809;28;20292;-69
2021/04/19 03:57:47;;;;;;;22.23;14.55;;;8.10;99.90;;;;;;5114007;28;20234;-70
2021/04/19 04:00:18;;;;;;;27.13;14.23;;;8.00;99.90;;;;;;5116279;28;20207;-70
2021/04/19 04:02:49;;;;;;;19.20;13.43;;;8.00;99.90;;;;;;5121045;27;20247;-70
2021/04/19 04:05:16;;;;;;;21.23;14.05;;;8.10;99.90;;;;;;5120678;27;20690;-70
2021/04/19 04:07:43;;;;;;;21.60;13.65;;;8.20;99.90;;;;;;5120524;27;20236;-70
2021/04/19 04:10:10;;;;;;;18.88;13.65;;;8.40;99.90;;;;;;5120685;27;20204;-70
2021/04/19 04:12:37;;;;;;;19.42;13.55;;;8.50;99.90;;;;;;5120389;28;20221;-69
2021/04/19 04:15:06;;;;;;;20.63;13.70;;;8.60;99.90;;;;;;5120673;27;20203;-69
2021/04/19 04:17:32;;;;;;;24.25;13.90;;;8.50;99.90;;;;;;5120416;27;20205;-70
2021/04/19 04:19:59;;;;;;;23.27;13.30;;;8.40;99.90;;;;;;5120325;27;20660;-70
2021/04/19 04:22:26;;;;;;;22.90;13.32;;;8.30;99.90;;;;;;5120567;27;20225;-69
2021/04/19 04:24:53;;;;;;;20.77;14.23;;;8.20;99.90;;;;;;5120295;27;20749;-69
2021/04/19 04:27:19;;;;;;;21.67;13.52;;;8.20;99.90;;;;;;5120289;27;20289;-69
2021/04/19 04:29:46;;;;;;;21.60;13.60;;;8.40;99.90;;;;;;5120550;27;20201;-69
2021/04/19 04:32:13;;;;;;;21.23;13.98;;;8.40;99.90;;;;;;5120356;27;20265;-69
2021/04/19 04:34:39;;;;;;;20.42;14.02;;;8.30;99.90;;;;;;5120407;27;20292;-70
2021/04/19 04:37:07;;;;;;;22.75;14.20;;;8.20;99.90;;;;;;5120378;27;20254;-70
2021/04/19 04:39:33;;;;;;;21.30;13.82;;;8.20;99.90;;;;;;5120775;27;20219;-70
2021/04/19 04:42:00;;;;;;;24.27;14.85;;;8.30;99.90;;;;;;5120323;27;20316;-70
2021/04/19 04:44:32;;;;;;;22.88;14.02;;;8.20;99.90;;;;;;5120197;27;20715;-70
2021/04/19 04:47:13;;;;;;;18.15;13.35;;;8.20;99.90;;;;;;5120034;27;20201;-70
2021/04/19 04:49:44;;;;;;;23.38;13.32;;;8.20;99.90;;;;;;5120410;27;20200;-70
2021/04/19 04:52:14;;;;;;;19.35;13.38;;;8.20;99.90;;;;;;5120331;27;20234;-69
2021/04/19 04:54:44;;;;;;;21.23;14.40;;;8.10;99.90;;;;;;5119962;27;20665;-70
2021/04/19 04:57:14;;;;;;;21.15;13.80;;;8.20;99.90;;;;;;5120094;27;20307;-70
2021/04/19 04:59:41;;;;;;;20.60;14.13;;;8.20;99.90;;;;;;5120135;27;20233;-70
2021/04/19 05:02:10;;;;;;;21.70;14.55;;;8.10;99.90;;;;;;5120193;27;20260;-69
2021/04/19 05:04:36;;;;;;;20.55;13.50;;;8.10;99.90;;;;;;5120172;27;20693;-69
2021/04/19 05:07:03;;;;;;;23.42;13.25;;;8.20;99.90;;;;;;5120030;27;20298;-70
2021/04/19 05:09:30;;;;;;;22.20;14.93;;;8.10;99.90;;;;;;5120147;27;20630;-69
2021/04/19 05:11:57;;;;;;;23.25;15.00;;;8.10;99.90;;;;;;5117397;27;20273;-69
2021/04/19 05:14:26;;;;;;;22.48;14.20;;;8.00;99.90;;;;;;5116933;28;20201;-69
2021/04/19 05:16:53;;;;;;;24.08;14.85;;;8.00;99.90;;;;;;5116450;28;20212;-70
2021/04/19 05:19:19;;;;;;;21.90;14.65;;;8.10;99.90;;;;;;5116842;28;20655;-70
2021/04/19 05:21:45;;;;;;;25.92;14.75;;;8.30;99.90;;;;;;5116553;28;20312;-70
2021/04/19 05:24:12;;;;;;;29.75;15.95;;;8.50;99.90;;;;;;5116710;28;20208;-70
2021/04/19 05:26:39;;;;;;;24.02;15.73;;;8.60;99.90;;;;;;5116338;28;20206;-69
2021/04/19 05:29:05;;;;;;;29.70;16.75;;;8.50;99.90;;;;;;5116609;28;20209;-69
2021/04/19 05:31:32;;;;;;;25.25;15.20;;;8.40;99.90;;;;;;5116672;28;20311;-69
2021/04/19 05:33:58;;;;;;;22.15;15.30;;;8.20;99.90;;;;;;5116579;28;20259;-70
2021/04/19 05:36:26;;;;;;;21.38;15.20;;;8.10;99.90;;;;;;5116144;28;20601;-69
2021/04/19 05:38:53;;;;;;;22.75;15.13;;;8.00;99.90;;;;;;5116447;28;20240;-70
2021/04/19 05:41:22;;;;;;;27.20;16.83;;;8.00;99.90;;;;;;5116265;28;20264;-70
2021/04/19 05:43:50;;;;;;;27.83;16.30;;;7.90;99.90;;;;;;5116316;27;20201;-70
2021/04/19 05:46:17;;;;;;;28.73;16.05;;;7.90;99.90;;;;;;5116122;28;20588;-69
2021/04/19 05:48:44;;;;;;;29.42;15.82;;;7.90;99.90;;;;;;5116256;28;20358;-69
2021/04/19 05:51:15;;;;;;;28.73;16.25;;;7.80;99.90;;;;;;5116098;28;20217;-69
2021/04/19 05:53:42;;;;;;;24.73;14.88;;;7.70;99.90;;;;;;5115882;28;20186;-69
2021/04/19 05:56:17;;;;;;;23.80;15.77;;;7.60;99.90;;;;;;5115722;28;20302;-69
2021/04/19 05:58:50;;;;;;;25.95;16.05;;;7.60;99.90;;;;;;5115884;28;20656;-69
2021/04/19 06:01:21;;;;;;;28.45;17.48;;;7.60;99.90;;;;;;5116179;28;20227;-69
2021/04/19 06:03:56;;;;;;;30.35;16.85;;;7.60;99.90;;;;;;5116086;28;20292;-69
2021/04/19 06:06:31;;;;;;;29.98;17.27;;;7.60;99.90;;;;;;5115656;28;20225;-69
2021/04/19 06:09:03;;;;;;;30.73;16.70;;;7.60;99.90;;;;;;5115652;28;20724;-69
2021/04/19 06:11:36;;;;;;;27.27;17.67;;;7.80;99.90;;;;;;5115813;28;20218;-69
2021/04/19 06:14:04;;;;;;;32.10;18.75;;;7.70;99.90;;;;;;5115580;28;20633;-70
2021/04/19 06:16:36;;;;;;;27.02;16.35;;;7.60;99.90;;;;;;5115379;28;20634;-70
2021/04/19 06:19:05;;;;;;;33.38;17.52;;;7.60;99.90;;;;;;5115365;28;20188;-69
2021/04/19 06:21:32;;;;;;;32.60;18.17;;;7.60;99.90;;;;;;5115506;28;20602;-69
2021/04/19 06:24:01;;;;;;;31.48;18.85;;;7.70;99.90;;;;;;5115223;28;20664;-69
2021/04/19 06:26:28;;;;;;;31.60;19.77;;;7.70;99.90;;;;;;5115147;28;20227;-70
2021/04/19 06:28:54;;;;;;;31.23;18.45;;;7.80;99.90;;;;;;5115440;28;20240;-70
2021/04/19 06:31:23;;;;;;;26.88;17.92;;;8.00;99.90;;;;;;5115312;28;20264;-71
2021/04/19 06:34:02;;;;;;;26.70;17.08;;;8.10;99.90;;;;;;5115157;28;20202;-70
2021/04/19 06:36:29;;;;;;;31.42;18.20;;;8.20;99.90;;;;;;5115111;28;20207;-70
2021/04/19 06:38:56;;;;;;;28.60;17.70;;;8.30;99.90;;;;;;5115270;28;20288;-70
2021/04/19 06:41:22;;;;;;;27.55;18.75;;;8.20;99.90;;;;;;5115220;27;20311;-70
2021/04/19 06:43:48;;;;;;;31.35;19.23;;;8.20;99.90;;;;;;5115203;28;20296;-70
2021/04/19 06:46:15;;;;;;;29.17;17.80;;;8.20;99.90;;;;;;5114647;28;20217;-70
2021/04/19 06:48:42;;;;;;;28.55;18.17;;;8.10;99.90;;;;;;5114874;28;20220;-70
2021/04/19 06:51:11;;;;;;;28.98;18.45;;;8.00;99.90;;;;;;5114837;28;20253;-70
2021/04/19 06:53:37;;;;;;;28.45;17.60;;;7.90;99.90;;;;;;5114712;28;20209;-70
2021/04/19 06:56:06;;;;;;;36.70;19.60;;;7.80;99.90;;;;;;5114451;28;20205;-69
2021/04/19 06:58:33;;;;;;;32.03;17.92;;;7.90;99.90;;;;;;5114821;28;20209;-70
2021/04/19 07:01:01;;;;;;;35.08;18.77;;;7.90;99.90;;;;;;5114542;28;20201;-70
2021/04/19 07:03:29;;;;;;;31.67;17.70;;;7.90;99.90;;;;;;5114915;28;20630;-70
2021/04/19 07:05:57;;;;;;;29.20;19.30;;;8.00;99.90;;;;;;5114489;28;20225;-70
2021/04/19 07:08:30;;;;;;;30.77;17.95;;;8.20;99.90;;;;;;5114612;28;20657;-70
2021/04/19 07:11:00;;;;;;;25.77;16.80;;;8.30;99.90;;;;;;5114595;28;20569;-71
2021/04/19 07:13:30;;;;;;;28.98;17.67;;;8.20;99.90;;;;;;5114671;28;20247;-70
2021/04/19 07:15:57;;;;;;;30.70;18.70;;;8.20;99.90;;;;;;5114352;28;20301;-69
2021/04/19 07:18:24;;;;;;;26.23;16.90;;;8.30;99.90;;;;;;5114551;27;20681;-69
2021/04/19 07:20:51;;;;;;;27.38;18.25;;;8.50;99.90;;;;;;5114395;28;20205;-70
2021/04/19 07:23:17;;;;;;;27.90;18.52;;;8.40;99.90;;;;;;5114476;27;20197;-69
2021/04/19 07:25:45;;;;;;;25.80;16.83;;;8.40;99.90;;;;;;5114223;28;20574;-69
2021/04/19 07:28:14;;;;;;;34.60;17.85;;;8.30;99.90;;;;;;5114132;28;20568;-69
2021/04/19 07:30:40;;;;;;;27.92;17.15;;;8.40;99.90;;;;;;5114152;28;20300;-70
2021/04/19 07:33:23;;;;;;;29.52;19.20;;;8.50;99.90;;;;;;5114322;28;20312;-70
2021/04/19 07:35:49;;;;;;;27.10;17.20;;;8.50;99.90;;;;;;5113526;28;20201;-69
2021/04/19 07:38:15;;;;;;;31.13;18.98;;;8.30;99.90;;;;;;5114191;28;20296;-69
2021/04/19 07:40:43;;;;;;;31.40;18.95;;;8.10;99.90;;;;;;5114001;28;20664;-69
2021/04/19 07:43:16;;;;;;;33.50;17.77;;;8.00;99.90;;;;;;5114133;28;20217;-69
2021/04/19 07:45:57;;;;;;;33.13;18.98;;;8.00;99.90;;;;;;5113814;28;20762;-69
2021/04/19 07:48:32;;;;;;;36.17;19.52;;;7.90;99.90;;;;;;5114076;28;20257;-70
2021/04/19 07:50:59;;;;;;;31.95;19.13;;;7.90;99.90;;;;;;5114027;28;20200;-69
2021/04/19 07:53:26;;;;;;;32.22;20.17;;;7.90;99.90;;;;;;5114133;28;20212;-69
2021/04/19 07:55:53;;;;;;;32.38;19.80;;;8.00;99.90;;;;;;5113673;28;20634;-69
2021/04/19 07:58:22;;;;;;;33.55;20.50;;;8.20;99.90;;;;;;5113992;28;20212;-70
2021/04/19 08:00:50;;;;;;;30.52;18.63;;;8.40;99.90;;;;;;5113808;28;20205;-70
2021/04/19 08:03:17;;;;;;;29.08;18.35;;;8.50;99.90;;;;;;5113697;28;20206;-69
2021/04/19 08:05:47;;;;;;;25.58;17.08;;;8.80;99.90;;;;;;5113416;28;20696;-70
2021/04/19 08:08:14;;;;;;;29.65;18.27;;;9.00;99.90;;;;;;5113735;28;20675;-70
2021/04/19 08:10:42;;;;;;;27.67;17.92;;;9.20;99.90;;;;;;5113793;28;20300;-69
2021/04/19 08:13:11;;;;;;;28.23;17.85;;;9.10;99.90;;;;;;5113882;28;20217;-69
2021/04/19 08:15:41;;;;;;;25.70;18.65;;;9.10;99.90;;;;;;5113614;28;20203;-70
2021/04/19 08:18:13;;;;;;;30.88;18.95;;;9.30;99.90;;;;;;5113816;28;20202;-70
2021/04/19 08:20:48;;;;;;;27.00;18.90;;;9.20;99.90;;;;;;5113838;28;20576;-70
2021/04/19 08:23:15;;;;;;;24.52;17.05;;;9.20;99.90;;;;;;5113852;28;20181;-70
2021/04/19 08:25:44;;;;;;;26.52;17.85;;;9.30;99.90;;;;;;5113503;28;20369;-70
2021/04/19 08:28:13;;;;;;;25.92;18.27;;;9.40;99.90;;;;;;5113715;28;20229;-69
2021/04/19 08:30:42;;;;;;;25.25;16.45;;;9.10;99.90;;;;;;5113721;28;20202;-69
2021/04/19 08:33:10;;;;;;;28.75;19.25;;;9.10;99.90;;;;;;5113657;28;20221;-69
2021/04/19 08:35:37;;;;;;;29.67;18.63;;;9.20;99.90;;;;;;5113568;28;20201;-69
2021/04/19 08:38:05;;;;;;;26.92;18.38;;;9.30;99.90;;;;;;5113550;28;20297;-70
2021/04/19 08:40:34;;;;;;;27.75;17.85;;;9.40;99.90;;;;;;5113558;28;20205;-70
2021/04/19 08:43:01;;;;;;;26.23;17.60;;;9.60;99.90;;;;;;5113572;28;20222;-70
2021/04/19 08:45:28;;;;;;;31.52;17.30;;;9.70;99.90;;;;;;5113314;28;20244;-69
2021/04/19 08:47:56;;;;;;;25.25;17.83;;;9.80;99.90;;;;;;5115822;28;20207;-69
2021/04/19 08:50:25;;;;;;;26.08;17.40;;;9.90;99.90;;;;;;5117396;28;20291;-70
2021/04/19 08:52:53;;;;;;;29.05;18.60;;;10.00;99.90;;;;;;5117193;27;20222;-69
2021/04/19 08:55:20;;;;;;;26.50;18.70;;;9.90;99.90;;;;;;5117249;28;20209;-69
2021/04/19 08:57:47;;;;;;;26.98;17.55;;;9.70;99.90;;;;;;5117274;28;20202;-69
2021/04/19 09:00:18;;;;;;;29.42;18.58;;;9.70;99.90;;;;;;5117241;28;20239;-70
2021/04/19 09:02:45;;;;;;;29.08;17.90;;;9.80;99.90;;;;;;5117169;28;20218;-70
2021/04/19 09:05:15;;;;;;;25.30;17.50;;;9.80;99.90;;;;;;5116946;28;20224;-70
2021/04/19 09:07:45;;;;;;;35.95;19.17;;;9.90;99.90;;;;;;5116974;28;20209;-69
2021/04/19 09:10:13;;;;;;;28.00;17.75;;;9.90;99.90;;;;;;5117035;28;20206;-70
2021/04/19 09:12:40;;;;;;;28.83;18.88;;;9.80;99.90;;;;;;5116655;28;20232;-70
2021/04/19 09:15:17;;;;;;;33.80;19.42;;;9.60;99.90;;;;;;5116957;28;20204;-70
2021/04/19 09:17:58;;;;;;;29.50;19.38;;;9.40;99.90;;;;;;5116570;28;20212;-69
2021/04/19 09:20:33;;;;;;;30.33;18.13;;;9.50;99.90;;;;;;5116882;28;20234;-70
2021/04/19 09:23:23;;;;;;;28.05;18.50;;;9.50;99.90;;;;;;5116813;28;20242;-69
2021/04/19 09:25:50;;;;;;;31.48;18.65;;;9.50;99.90;;;;;;5116530;28;20217;-70
2021/04/19 09:28:52;;;;;;;25.50;15.40;;;9.40;99.90;;;;;;5116651;28;20576;-70
2021/04/19 09:31:56;;;;;;;28.52;15.45;;;9.50;99.90;;;;;;5116602;28;20588;-69
2021/04/19 09:34:36;;;;;;;24.83;15.38;;;9.50;99.90;;;;;;5116344;27;20625;-69
2021/04/19 09:37:04;;;;;;;26.75;15.95;;;9.60;99.90;;;;;;5116198;28;20343;-69
2021/04/19 09:39:48;;;;;;;27.45;16.30;;;9.70;99.90;;;;;;5116510;28;20713;-69
2021/04/19 09:42:15;;;;;;;28.63;17.35;;;9.70;99.90;;;;;;5116332;28;20308;-69
2021/04/19 09:44:53;;;;;;;26.58;16.95;;;9.60;99.90;;;;;;5116306;28;20201;-69
2021/04/19 09:47:48;;;;;;;27.67;16.60;;;9.60;99.90;;;;;;5115925;28;20201;-70
2021/04/19 09:50:16;;;;;;;30.73;17.35;;;9.70;99.90;;;;;;5116101;28;20237;-69
2021/04/19 09:52:48;;;;;;;29.05;16.92;;;9.70;99.90;;;;;;5116169;28;20316;-70
2021/04/19 09:55:14;;;;;;;25.42;17.00;;;9.80;99.90;;;;;;5115986;28;20250;-70
2021/04/19 09:57:42;;;;;;;27.95;17.38;;;10.00;99.90;;;;;;5115399;28;20229;-70
2021/04/19 10:00:09;;;;;;;28.50;18.33;;;10.10;99.90;;;;;;5115852;28;20653;-70
2021/04/19 10:02:39;;;;;;;27.85;17.20;;;10.20;99.90;;;;;;5116043;28;20218;-69
2021/04/19 10:05:08;;;;;;;26.25;16.13;;;10.30;99.90;;;;;;5115771;28;20226;-70
2021/04/19 10:07:40;;;;;;;23.85;15.93;;;10.40;99.90;;;;;;5115691;28;20712;-70
2021/04/19 10:10:09;;;;;;;23.50;16.60;;;10.50;99.90;;;;;;5115918;28;20205;-70
2021/04/19 10:12:47;;;;;;;24.92;16.92;;;10.60;99.90;;;;;;5115810;28;20217;-69
2021/04/19 10:15:17;;;;;;;25.55;16.45;;;10.70;99.90;;;;;;5115667;28;20676;-70
2021/04/19 10:17:44;;;;;;;26.95;16.10;;;10.50;99.90;;;;;;5116018;28;20671;-70
2021/04/19 10:20:15;;;;;;;24.90;16.08;;;10.50;99.90;;;;;;5115664;28;20209;-70
2021/04/19 10:22:42;;;;;;;24.38;16.60;;;10.40;99.90;;;;;;5115278;28;20221;-70
2021/04/19 10:25:10;;;;;;;23.60;16.80;;;10.30;99.90;;;;;;5115575;28;20316;-70
2021/04/19 10:27:36;;;;;;;27.90;16.52;;;10.30;99.90;;;;;;5115383;28;20330;-70
2021/04/19 10:30:11;;;;;;;25.20;16.25;;;10.30;99.90;;;;;;5115466;28;20205;-70
2021/04/19 10:32:38;;;;;;;28.73;16.80;;;10.40;99.90;;;;;;5115159;28;20591;-70
2021/04/19 10:35:25;;;;;;;27.10;16.73;;;10.50;99.90;;;;;;5115411;28;20198;-69
2021/04/19 10:37:52;;;;;;;28.58;17.15;;;10.50;99.90;;;;;;5114998;28;20291;-70
2021/04/19 10:40:19;;;;;;;31.70;17.60;;;10.60;99.90;;;;;;5115308;28;20233;-70
2021/04/19 10:42:45;;;;;;;28.13;17.00;;;10.60;99.90;;;;;;5114918;28;20719;-70
2021/04/19 10:45:13;;;;;;;29.80;16.25;;;10.60;99.90;;;;;;5115135;28;20610;-70
2021/04/19 10:47:39;;;;;;;25.45;16.38;;;10.60;99.90;;;;;;5114878;28;20279;-70
2021/04/19 10:50:07;;;;;;;26.70;16.70;;;10.70;99.90;;;;;;5115128;28;20209;-70
2021/04/19 10:52:33;;;;;;;27.63;16.10;;;10.70;99.90;;;;;;5115027;28;20650;-70
2021/04/19 10:55:05;;;;;;;30.02;17.02;;;10.80;99.90;;;;;;5114805;28;20296;-70
2021/04/19 10:57:32;;;;;;;26.90;16.10;;;10.90;99.90;;;;;;5114734;28;20286;-69
2021/04/19 11:00:00;;;;;;;27.73;16.75;;;10.90;99.90;;;;;;5114576;28;20688;-70
2021/04/19 11:02:28;;;;;;;25.85;16.00;;;10.90;99.90;;;;;;5114518;28;20226;-70
2021/04/19 11:04:55;;;;;;;25.90;15.95;;;10.90;99.90;;;;;;5114759;28;20304;-70
2021/04/19 11:07:26;;;;;;;23.98;16.17;;;10.90;99.90;;;;;;5114609;28;20203;-70
2021/04/19 11:10:17;;;;;;;30.58;16.30;;;10.90;99.90;;;;;;5113890;28;20250;-70
2021/04/19 11:12:58;;;;;;;24.10;15.02;;;10.90;99.90;;;;;;5108652;27;20221;-70
2021/04/19 11:15:30;;;;;;;25.20;16.23;;;10.90;99.90;;;;;;5114209;28;20193;-70
2021/04/19 11:17:56;;;;;;;25.92;15.85;;;10.90;99.90;;;;;;5114672;28;20568;-70
2021/04/19 11:20:23;;;;;;;25.67;16.00;;;10.90;99.90;;;;;;5114545;28;20292;-70
2021/04/19 11:22:50;;;;;;;26.25;16.35;;;10.90;99.90;;;;;;5114344;28;20247;-70
2021/04/19 11:25:18;;;;;;;23.95;15.00;;;10.90;99.90;;;;;;5114414;28;20228;-70
2021/04/19 11:27:46;;;;;;;24.70;14.35;;;11.00;99.90;;;;;;5114365;28;20292;-70
2021/04/19 11:30:24;;;;;;;23.73;14.52;;;11.00;99.90;;;;;;5114220;28;20736;-69
2021/04/19 11:33:02;;;;;;;23.80;14.95;;;11.00;99.90;;;;;;5114070;28;20731;-69
2021/04/19 11:35:35;;;;;;;21.20;14.48;;;10.90;99.90;;;;;;5114053;28;20728;-70
2021/04/19 11:38:03;;;;;;;22.80;14.23;;;10.90;99.90;;;;;;5114253;28;20358;-69
2021/04/19 11:40:31;;;;;;;24.60;15.38;;;10.90;99.90;;;;;;5114175;28;20597;-70
2021/04/19 11:42:58;;;;;;;23.17;15.02;;;10.80;99.90;;;;;;5114536;28;20308;-69
2021/04/19 11:45:26;;;;;;;23.95;15.02;;;10.80;99.90;;;;;;5113853;28;20328;-70
2021/04/19 11:47:53;;;;;;;23.45;13.93;;;10.80;99.90;;;;;;5114012;28;20201;-69
2021/04/19 11:50:22;;;;;;;20.77;13.63;;;10.80;99.90;;;;;;5113820;28;20206;-70
2021/04/19 11:52:50;;;;;;;25.55;14.80;;;10.80;99.90;;;;;;5114038;28;20268;-70
2021/04/19 11:55:17;;;;;;;23.65;13.52;;;11.00;99.90;;;;;;5113654;28;20209;-70
2021/04/19 11:57:45;;;;;;;30.70;18.52;;;11.00;99.90;;;;;;5113959;28;20292;-69
2021/04/19 12:00:12;;;;;;;23.48;14.25;;;11.10;99.90;;;;;;5114168;28;20671;-70
2021/04/19 12:02:40;;;;;;;24.20;13.95;;;11.00;99.90;;;;;;5113665;28;20221;-70
2021/04/19 12:05:08;;;;;;;22.05;14.27;;;11.10;99.90;;;;;;5113854;28;20312;-70
2021/04/19 12:07:35;;;;;;;26.45;15.57;;;11.20;99.90;;;;;;5113587;28;20292;-69
2021/04/19 12:10:01;;;;;;;25.33;15.43;;;11.20;99.90;;;;;;5113897;28;20296;-70
2021/04/19 12:12:28;;;;;;;21.65;13.55;;;11.10;99.90;;;;;;5113765;28;20221;-70
2021/04/19 12:14:55;;;;;;;25.45;14.32;;;11.00;99.90;;;;;;5113914;28;20240;-70
2021/04/19 12:17:21;;;;;;;22.83;14.02;;;10.80;99.90;;;;;;5113428;28;20236;-70
2021/04/19 12:19:48;;;;;;;21.65;13.55;;;11.00;99.90;;;;;;5113580;28;20204;-69
2021/04/19 12:22:15;;;;;;;21.25;12.85;;;10.90;99.90;;;;;;5116748;28;20374;-70
2021/04/19 12:24:41;;;;;;;21.83;12.93;;;10.90;99.90;;;;;;5117671;28;20292;-69
2021/04/19 12:27:07;;;;;;;18.67;11.70;;;11.00;99.90;;;;;;5117733;28;20226;-70
2021/04/19 12:29:34;;;;;;;20.33;12.82;;;11.00;99.90;;;;;;5117775;28;20297;-70
2021/04/19 12:32:00;;;;;;;17.52;11.63;;;11.20;99.90;;;;;;5117783;28;20308;-70
2021/04/19 12:34:27;;;;;;;17.83;10.75;;;11.30;99.90;;;;;;5117731;28;20201;-70
2021/04/19 12:36:54;;;;;;;15.75;10.65;;;11.40;99.90;;;;;;5117346;28;20307;-70
2021/04/19 12:39:21;;;;;;;14.40;9.90;;;11.60;99.90;;;;;;5117628;28;20202;-70
2021/04/19 12:41:48;;;;;;;15.85;10.27;;;11.60;99.90;;;;;;5117398;28;20221;-70
2021/04/19 12:44:15;;;;;;;15.57;10.93;;;11.70;99.90;;;;;;5117552;28;20202;-70